Overview Statistics Trail Chart Weather Telemetry Raw packets
 

This is the latest recevied weather packets stored in our database for station/object K1RFS. If no packets are shown the sender has not sent any weather packets the latest 10 day(s).

<< 1 2 3 4 5 6 >>
Time Temp. Humidity Pressure Rain* Wind** Luminosity Snow
1788689955 19.44° C 32% 1002.8 hPa 0 mm - 0 W/m² -
1788689651 20° C 31% 1002.8 hPa 0 mm - 0 W/m² -
1788689346 20° C 31% 1002.8 hPa 0 mm - 0 W/m² -
1788689046 20° C 29% 1002.6 hPa 0 mm - 0 W/m² -
1788688741 20° C 31% 1002.6 hPa 0 mm - 0 W/m² -
1788688436 20° C 30% 1002.6 hPa 0 mm - 0 W/m² -
1788688136 20° C 30% 1002.8 hPa 0 mm - 0 W/m² -
1788687831 20.56° C 31% 1002.8 hPa 0 mm - 0 W/m² -
1788687527 19.44° C 32% 1002.5 hPa 0 mm - 0 W/m² -
1788687223 18.33° C 37% 1002.5 hPa 0 mm - 0 W/m² -
1788686923 17.78° C 39% 1002.3 hPa 0 mm - 0 W/m² -
1788686617 17.22° C 39% 1002.6 hPa 0 mm - 0 W/m² -
1788686313 17.22° C 39% 1002.4 hPa 0 mm - 0 W/m² -
1788686009 17.78° C 39% 1002.3 hPa 0 mm - 0 W/m² -
1788685706 17.78° C 38% 1002.5 hPa 0 mm - 0 W/m² -
1788685405 18.33° C 38% 1002.5 hPa 0 mm - 0 W/m² -
1788685105 18.33° C 38% 1002.4 hPa 0 mm - 0 W/m² -
1788684804 18.89° C 37% 1002.5 hPa 0 mm - 0 W/m² -
1788684499 18.89° C 35% 1002.5 hPa 0 mm - 0 W/m² -
1788684198 20° C 34% 1002.3 hPa 0 mm - 0 W/m² -
1788683893 20.56° C 31% 1002.2 hPa 0 mm - 0 W/m² -
1788683588 20.56° C 28% 1002.2 hPa 0 mm - 0 W/m² -
1788683283 21.11° C 28% 1002.4 hPa 0 mm - 0 W/m² -
1788682978 21.11° C 27% 1002.4 hPa 0 mm - 0 W/m² -
1788682674 21.11° C 27% 1002.4 hPa 0 mm - 0 W/m² -

* Rain latest hour (hover to see other rain measurements)
** Current wind speed in m/s (hover to see current wind gust speed)